Date,TemperatureHighF,TemperatureAvgF,TemperatureLowF,DewpointHighF,DewpointAvgF,DewpointLowF,HumidityHigh,HumidityAvg,HumidityLow,PressureMaxIn,PressureMinIn,WindSpeedMaxMPH,WindSpeedAvgMPH,GustSpeedMaxMPH,PrecipitationSumIn
2013-1-1,36.9,30.8,19.2,28.0,21.2,10.0,80,68,57,29.95,29.77,7,2,11,0.02
2013-1-2,30.5,21.0,12.4,17.0,11.7,7.0,81,68,54,30.11,29.93,5,1,10,0.00
2013-1-3,25.7,17.6,7.6,14.0,5.8,-2.0,79,61,34,30.15,30.02,5,1,8,0.00
2013-1-4,37.9,29.5,20.0,26.0,21.1,15.0,83,71,57,30.01,29.86,9,2,13,0.01
2013-1-5,41.9,32.1,23.3,27.0,22.3,19.0,86,68,50,30.27,29.90,5,2,11,0.00
2013-1-6,41.9,32.0,23.4,33.0,27.9,20.0,95,85,67,30.23,29.95,4,1,8,0.03
2013-1-7,41.1,31.3,22.2,32.0,24.3,19.0,95,77,51,30.41,29.99,4,1,6,0.01
2013-1-8,46.7,34.1,19.1,32.0,27.7,17.0,96,79,56,30.40,30.30,7,2,13,0.00
2013-1-9,43.9,36.0,23.9,38.0,31.4,23.0,96,84,65,30.39,30.04,14,2,14,0.00
2013-1-10,46.0,38.9,29.2,34.0,26.5,24.0,81,62,45,30.53,30.10,7,2,18,0.00
2013-1-11,40.2,33.0,24.8,39.0,29.2,22.0,96,86,72,30.53,30.20,3,1,8,0.18
2013-1-12,43.9,41.4,39.1,43.0,40.8,38.0,98,97,96,30.21,30.12,5,1,9,0.05
2013-1-13,53.1,47.1,41.9,51.0,46.3,41.0,98,96,92,30.16,30.03,7,2,10,0.01
2013-1-14,60.1,51.1,39.1,54.0,45.4,32.0,98,82,55,30.25,29.94,6,2,11,0.01
2013-1-15,41.6,37.0,34.4,35.0,31.8,28.0,96,82,65,30.31,30.21,3,0,5,0.14
2013-1-16,36.2,33.3,31.3,33.0,31.2,27.0,97,92,71,30.24,29.79,5,0,8,0.46
2013-1-17,41.5,35.3,30.7,32.0,29.3,21.0,96,80,60,30.08,29.86,6,1,13,0.06
2013-1-18,32.1,25.1,19.1,23.0,9.0,3.0,68,52,36,30.49,30.02,6,2,11,0.00
2013-1-19,46.9,37.2,20.0,35.0,27.3,10.0,79,68,55,30.42,29.93,12,4,19,0.01
2013-1-20,53.8,43.1,28.4,36.0,29.0,11.0,79,59,41,29.95,29.59,11,4,23,0.00
2013-1-21,29.7,26.2,20.3,24.0,14.7,9.0,92,64,44,30.11,29.79,7,1,11,0.00
2013-1-22,25.6,20.3,10.9,22.0,8.7,0.0,93,64,37,30.11,29.76,7,2,16,0.03
2013-1-23,18.1,11.7,7.4,3.0,-3.0,-8.0,72,53,42,30.18,30.09,6,2,13,0.00
2013-1-24,20.1,11.5,1.9,-1.0,-4.4,-7.0,68,50,36,30.27,30.10,7,2,14,0.00
2013-1-25,24.4,16.7,7.9,14.0,0.3,-5.0,86,50,33,30.33,30.05,5,1,10,0.00
2013-1-26,25.8,17.6,8.9,14.0,6.8,1.0,89,65,40,30.27,30.01,6,1,10,0.01
2013-1-27,31.0,20.4,9.1,8.0,4.8,1.0,74,53,36,30.47,30.26,5,1,10,0.00
2013-1-28,32.3,25.7,15.9,29.0,17.1,5.0,95,72,39,30.47,30.01,6,1,8,0.00
2013-1-29,35.4,32.0,28.9,33.0,30.4,27.0,96,93,88,30.19,30.00,5,0,6,0.07
2013-1-30,59.4,49.5,33.1,57.0,48.4,32.0,99,95,90,30.15,29.50,15,4,25,0.05
2013-1-31,60.5,49.2,31.0,58.0,37.6,13.0,95,67,40,29.63,29.04,18,7,33,0.41
2013-2-1,33.5,28.1,21.2,17.0,11.2,6.0,59,50,38,30.12,29.63,10,3,21,0.00
2013-2-2,30.4,24.9,18.4,18.0,11.2,7.0,70,57,43,30.27,30.06,8,2,16,0.00
2013-2-3,33.2,26.5,20.9,22.0,19.7,17.0,85,76,62,30.06,29.74,7,1,8,0.00
2013-2-4,31.4,24.6,19.9,20.0,12.5,7.0,83,62,39,29.97,29.74,11,1,15,0.00
2013-2-5,25.7,24.1,21.7,23.0,17.8,11.0,91,77,63,30.03,29.93,5,1,7,0.00
2013-2-6,39.0,30.7,25.1,29.0,21.0,7.0,93,70,45,30.31,29.92,4,1,14,0.04
2013-2-7,32.1,25.4,17.9,14.0,9.9,7.0,71,53,38,30.53,30.32,7,1,10,0.00
2013-2-8,32.8,29.7,22.5,31.0,26.7,15.0,96,89,69,30.47,29.46,12,3,15,0.88
2013-2-9,27.3,20.8,12.3,25.0,17.9,8.0,94,88,82,30.20,29.47,6,1,10,0.44
2013-2-10,36.9,21.3,8.8,26.0,14.7,5.0,87,77,40,30.41,30.21,4,1,7,0.00
2013-2-11,44.9,33.4,15.5,44.0,31.9,12.0,98,94,85,30.36,29.62,7,2,15,0.26
2013-2-12,44.3,36.8,27.2,40.0,30.2,24.0,98,78,56,29.91,29.63,6,2,22,0.00
2013-2-13,43.5,34.1,26.6,29.0,25.6,22.0,88,72,49,29.89,29.68,5,1,7,0.00
2013-2-14,44.0,34.3,25.5,30.0,26.1,23.0,94,74,43,30.01,29.70,6,1,11,0.07
2013-2-15,48.1,37.9,26.6,36.0,32.9,24.0,97,83,62,30.04,29.93,9,2,14,0.00
2013-2-16,36.0,33.1,29.9,33.0,30.7,24.0,96,91,79,29.95,29.66,4,1,7,0.02
2013-2-17,29.8,22.5,15.8,25.0,13.3,3.0,92,70,43,29.72,29.42,11,3,22,0.00
2013-2-18,30.6,22.6,14.1,8.0,4.1,1.0,59,46,30,30.20,29.73,9,3,22,0.07
2013-2-19,46.9,35.1,17.8,44.0,27.9,8.0,97,76,54,30.20,29.60,8,2,14,0.48
2013-2-20,40.1,32.0,25.2,39.0,20.9,12.0,97,65,44,29.82,29.57,13,3,16,0.00
2013-2-21,34.6,28.1,24.3,18.0,15.8,14.0,72,60,47,30.19,29.82,9,3,18,0.00
2013-2-22,41.0,32.0,25.1,27.0,22.8,18.0,84,70,54,30.38,30.21,8,2,12,0.00
2013-2-23,37.8,33.5,29.9,33.0,30.1,26.0,97,87,76,30.33,29.87,9,2,17,0.29
2013-2-24,37.0,35.0,31.9,36.0,33.9,31.0,97,95,93,29.89,29.67,10,2,10,0.33
2013-2-25,42.1,35.5,29.8,37.0,31.7,29.0,96,86,68,30.25,29.89,5,1,9,0.02
2013-2-26,44.5,37.1,32.9,35.0,30.9,27.0,93,79,57,30.33,30.11,8,2,12,0.00
2013-2-27,43.1,40.5,35.9,42.0,39.4,32.0,97,96,84,30.11,29.58,14,4,22,1.59
2013-2-28,46.0,38.8,32.7,42.0,36.9,32.0,98,93,80,29.65,29.53,2,0,6,0.00
2013-3-1,49.5,39.7,32.3,37.0,31.5,28.0,96,74,49,29.69,29.53,6,1,9,0.00
2013-3-2,40.8,37.1,32.4,29.0,28.1,26.0,78,70,62,29.70,29.63,4,1,8,0.00
2013-3-3,44.3,35.9,31.5,30.0,27.6,25.0,88,72,56,29.65,29.57,4,1,8,0.00
2013-3-4,42.9,34.4,28.0,27.0,24.0,21.0,84,66,52,29.75,29.61,8,3,18,0.00
2013-3-5,47.2,36.9,29.3,32.0,27.5,22.0,91,70,54,30.07,29.75,6,2,10,0.00
2013-3-6,41.5,36.5,29.3,36.0,33.3,27.0,95,88,72,30.04,29.95,17,6,28,0.03
2013-3-7,35.6,33.1,31.0,34.0,31.0,28.0,95,92,87,29.98,29.91,11,4,24,0.08
2013-3-8,38.3,32.8,29.9,33.0,29.1,25.0,94,87,62,30.11,29.90,10,3,17,0.08
2013-3-9,49.9,38.9,28.8,31.0,27.0,22.0,91,64,46,30.34,30.11,8,3,13,0.01
2013-3-10,47.2,37.1,27.2,36.0,31.4,26.0,96,81,60,30.41,30.32,9,2,12,0.00
2013-3-11,54.7,42.9,35.6,42.0,38.1,33.0,95,84,61,30.34,30.17,10,2,13,0.00
2013-3-12,54.7,50.1,39.9,53.0,48.3,39.0,98,93,86,30.17,29.75,14,5,22,0.73
2013-3-13,53.8,44.1,33.1,51.0,32.9,24.0,97,68,37,29.80,29.71,6,2,12,0.01
2013-3-14,36.1,31.0,24.4,28.0,18.2,11.0,84,61,40,29.86,29.74,8,2,17,0.00
2013-3-15,42.4,32.0,23.3,29.0,16.8,8.0,80,56,28,29.89,29.68,8,2,15,0.00
2013-3-16,40.6,34.7,27.6,30.0,18.6,12.0,84,54,32,29.87,29.72,9,1,13,0.00
2013-3-17,40.9,33.0,25.0,25.0,15.6,6.0,73,51,27,30.30,29.87,6,1,13,0.00
2013-3-18,36.8,29.4,18.9,29.0,13.6,4.0,92,54,32,30.46,30.20,8,2,12,0.00
2013-3-19,37.4,33.3,29.6,36.0,32.0,28.0,96,95,93,30.19,29.57,10,3,15,0.73
2013-3-20,41.4,33.3,26.1,30.0,22.8,19.0,95,68,44,29.82,29.69,10,2,19,0.16
2013-3-21,40.4,32.7,26.8,29.0,25.3,21.0,87,75,56,29.84,29.61,5,1,8,0.02
2013-3-22,42.4,34.5,26.0,27.0,20.3,17.0,83,57,41,29.78,29.63,11,2,14,0.01
2013-3-23,45.4,36.6,28.6,25.0,22.0,19.0,81,57,36,29.83,29.68,12,3,19,0.00
2013-3-24,51.3,39.1,28.8,30.0,24.9,20.0,80,59,37,29.86,29.72,10,2,13,0.00
2013-3-25,46.2,37.1,29.4,34.0,29.1,25.0,89,74,47,29.76,29.48,14,3,26,0.01
2013-3-26,49.1,39.7,31.5,32.0,28.1,22.0,89,65,45,29.80,29.50,8,1,10,0.01
2013-3-27,55.5,40.3,27.7,31.0,25.7,22.0,79,59,33,29.87,29.76,5,1,11,0.00
2013-3-28,50.1,42.3,35.9,35.0,32.8,30.0,89,71,49,30.03,29.87,7,1,10,0.00
2013-3-29,59.5,46.2,33.7,37.0,31.8,28.0,89,61,34,30.06,29.98,5,1,9,0.00
2013-3-30,60.3,48.6,36.4,34.0,25.7,18.0,75,45,21,30.11,30.01,5,1,12,0.00
2013-3-31,58.7,44.9,29.1,44.0,30.1,23.0,95,61,29,30.13,29.73,13,4,18,0.15
2013-4-1,60.8,47.7,33.7,47.0,40.5,21.0,97,78,53,29.82,29.55,14,3,19,0.18
2013-4-2,44.2,34.4,27.2,22.0,16.6,10.0,70,51,27,29.99,29.83,8,2,17,0.00
2013-4-3,47.4,35.9,28.2,18.0,15.2,11.0,60,44,25,30.20,29.98,12,3,17,0.00
2013-4-4,54.3,39.4,27.9,32.0,21.5,15.0,79,52,23,30.34,30.10,11,3,12,0.00
2013-4-5,62.9,47.4,37.9,37.0,29.6,18.0,79,55,22,30.09,29.64,5,2,9,0.00
2013-4-6,50.3,40.9,32.3,27.0,16.3,4.0,68,41,15,30.33,29.89,7,2,11,0.00
2013-4-7,52.5,43.0,26.7,43.0,32.7,20.0,86,69,39,30.33,30.04,20,5,22,0.00
2013-4-8,69.0,53.6,44.5,46.0,43.6,40.0,94,72,39,30.11,29.98,7,2,12,0.00
2013-4-9,78.7,59.5,45.5,55.0,45.5,40.0,97,65,30,30.09,29.86,11,2,15,0.02
2013-4-10,68.6,53.3,45.5,53.0,46.6,43.0,96,80,53,30.00,29.86,8,2,12,0.41
2013-4-11,55.9,48.7,45.1,48.0,44.4,36.0,97,86,65,30.12,29.82,7,2,10,0.00
2013-4-12,45.3,41.1,38.5,38.0,36.1,31.0,96,83,66,30.14,29.75,17,5,23,0.44
2013-4-13,57.1,44.9,37.5,42.0,37.3,35.0,94,77,47,29.95,29.72,9,2,16,0.00
2013-4-14,55.6,47.0,36.8,40.0,34.4,26.0,88,64,39,30.23,29.94,7,1,10,0.00
2013-4-15,55.5,44.2,32.5,39.0,33.4,27.0,91,68,44,30.42,30.22,12,2,14,0.00
2013-4-16,61.2,49.6,34.2,49.0,42.9,33.0,97,79,58,30.42,30.12,14,4,20,0.00
2013-4-17,71.6,57.8,43.6,52.0,43.5,33.0,91,64,25,30.33,30.09,7,2,16,0.01
2013-4-18,60.8,49.8,36.3,47.0,38.7,32.0,95,69,38,30.41,30.17,9,3,16,0.00
2013-4-19,70.6,61.0,51.3,63.0,58.4,48.0,97,91,75,30.17,29.72,13,5,23,0.01
2013-4-20,62.2,54.2,45.2,61.0,44.4,30.0,96,72,39,30.23,29.64,14,2,23,0.38
2013-4-21,58.6,44.5,32.7,32.0,27.1,21.0,81,53,29,30.67,30.25,9,2,13,0.00
2013-4-22,55.1,44.0,31.8,36.0,32.1,28.0,93,66,35,30.73,30.57,13,4,21,0.00
2013-4-23,43.9,41.7,39.6,42.0,38.8,33.0,94,89,75,30.57,30.08,6,3,15,0.01
2013-4-24,73.7,53.3,42.0,50.0,44.3,40.0,94,75,37,30.07,29.84,12,3,14,0.00
2013-4-25,68.9,55.7,42.6,51.0,39.1,27.0,94,59,25,30.27,29.88,7,2,16,0.03
2013-4-26,63.6,50.7,36.7,43.0,37.2,29.0,90,63,38,30.41,30.27,9,2,14,0.00
2013-4-27,62.9,49.6,36.1,46.0,38.4,35.0,97,69,40,30.42,30.32,10,2,14,0.00
2013-4-28,66.5,52.8,36.4,47.0,37.0,21.0,96,61,28,30.35,30.26,11,3,17,0.00
2013-4-29,67.0,54.7,44.4,48.0,37.3,22.0,95,58,23,30.29,30.24,7,2,13,0.00
2013-4-30,70.0,54.9,38.6,42.0,32.4,18.0,91,48,16,30.36,30.26,14,2,14,0.00
2013-5-1,69.9,53.6,35.4,48.0,40.9,33.0,93,66,37,30.48,30.36,9,2,15,0.00
2013-5-2,78.5,58.1,39.8,48.0,41.8,37.0,96,61,27,30.47,30.33,8,2,15,0.00
2013-5-3,66.6,53.3,41.6,46.0,41.5,37.0,89,66,48,30.49,30.38,11,2,17,0.00
2013-5-4,67.6,52.4,38.0,46.0,38.6,30.0,95,64,28,30.37,30.28,11,3,16,0.00
2013-5-5,65.9,50.4,35.3,45.0,40.8,34.0,97,73,42,30.32,30.23,8,2,14,0.00
2013-5-6,70.8,56.0,45.4,52.0,46.4,42.0,91,72,51,30.29,30.16,10,2,13,0.00
2013-5-7,75.0,59.7,41.8,61.0,52.0,41.0,97,78,54,30.19,30.12,10,2,12,0.00
2013-5-8,68.6,60.7,54.4,64.0,58.8,53.0,97,93,81,30.18,30.05,11,2,17,0.20
2013-5-9,68.4,59.7,56.8,63.0,58.3,56.0,98,95,75,30.04,29.88,6,1,10,0.32
2013-5-10,79.4,66.4,53.6,62.0,56.8,53.0,99,74,48,29.97,29.91,5,1,9,0.00
2013-5-11,69.6,61.4,56.9,61.0,58.7,54.0,97,91,73,29.94,29.71,13,2,16,0.18
2013-5-12,72.3,61.0,49.1,61.0,53.5,37.0,99,79,46,29.84,29.59,5,1,8,0.03
2013-5-13,62.2,51.3,40.9,38.0,33.8,30.0,80,54,34,30.04,29.84,8,1,12,0.00
2013-5-14,59.7,49.2,37.3,38.0,33.5,30.0,83,57,33,30.07,29.99,5,1,8,0.00
2013-5-15,64.1,51.0,36.0,53.0,42.7,34.0,95,76,35,30.08,29.70,13,2,16,0.03
2013-5-16,81.4,64.5,51.2,54.0,49.2,41.0,96,64,24,29.80,29.67,6,1,13,0.00
2013-5-17,73.4,59.9,48.5,50.0,45.8,42.0,87,63,33,30.23,29.80,6,1,12,0.00
2013-5-18,72.6,58.6,43.5,52.0,45.9,40.0,95,67,32,30.31,30.23,6,1,9,0.00
2013-5-19,69.0,57.4,47.0,55.0,51.1,45.0,97,81,54,30.35,30.23,8,1,10,0.16
2013-5-20,81.3,67.2,56.0,68.0,62.7,55.0,99,87,62,30.23,29.93,4,1,7,0.04
2013-5-21,86.7,69.2,53.9,71.0,63.3,53.0,98,83,57,29.98,29.83,9,1,14,0.34
2013-5-22,74.4,61.4,51.9,68.0,58.6,50.0,97,91,76,30.00,29.88,6,1,12,0.01
2013-5-23,73.8,66.2,61.5,68.0,64.3,61.0,97,93,83,29.93,29.84,7,2,16,0.07
2013-5-24,69.3,62.7,51.3,67.0,61.4,50.0,98,95,87,29.83,29.68,9,1,12,0.18
2013-5-25,52.6,48.2,42.5,52.0,47.0,40.0,98,95,91,29.81,29.72,6,1,9,0.06
2013-5-26,59.4,49.9,41.9,49.0,42.8,40.0,93,78,55,30.14,29.77,5,1,13,0.03
2013-5-27,73.0,58.1,42.1,47.0,42.6,38.0,94,61,29,30.18,30.09,6,1,10,0.05
2013-5-28,74.1,60.3,44.9,56.0,49.6,43.0,94,70,44,30.23,30.18,10,1,12,0.04
2013-5-29,73.6,63.9,57.6,67.0,61.2,56.0,98,91,77,30.20,30.01,8,1,10,0.03
2013-5-30,87.9,74.6,61.4,74.0,67.9,61.0,99,81,54,30.11,30.02,4,0,7,0.05
2013-5-31,90.4,78.5,66.2,74.0,67.5,63.0,95,71,46,30.10,29.97,6,1,10,0.03
2013-6-1,87.6,76.1,66.0,71.0,66.5,63.0,92,74,51,30.00,29.91,6,1,11,0.02
2013-6-2,84.7,73.2,66.1,70.0,65.7,63.0,91,78,58,29.92,29.80,9,2,18,0.03
2013-6-3,71.7,66.7,63.0,70.0,65.4,60.0,98,95,88,29.86,29.79,3,0,6,0.01
2013-6-4,71.8,62.7,51.3,60.0,49.0,42.0,90,62,45,30.08,29.83,6,1,7,0.02
2013-6-5,73.5,61.6,49.2,55.0,49.4,46.0,95,67,40,30.20,30.08,7,1,10,0.00
2013-6-6,72.5,61.0,50.7,61.0,54.0,49.0,97,79,52,30.20,30.10,9,2,14,0.00
2013-6-7,59.9,57.9,55.0,59.0,56.3,54.0,98,94,85,30.09,29.77,12,2,14,2.44
2013-6-8,78.3,64.2,54.7,67.0,60.5,54.0,99,88,68,30.02,29.58,5,1,10,0.81
2013-6-9,78.5,68.4,56.6,63.0,59.5,56.0,96,75,50,30.18,30.02,3,0,8,0.00
2013-6-10,70.9,63.7,56.9,64.0,59.7,56.0,97,87,69,30.19,29.97,7,2,10,1.18
2013-6-11,74.8,64.1,58.5,69.0,62.9,58.0,99,96,80,29.96,29.55,7,1,9,0.91
2013-6-12,69.6,62.9,56.5,60.0,57.0,53.0,98,82,65,29.82,29.59,4,1,10,0.00
2013-6-13,62.6,57.2,52.2,58.0,54.8,51.0,96,91,83,29.83,29.60,7,2,15,0.43
2013-6-14,69.7,58.7,52.1,59.0,54.5,51.0,98,87,66,29.79,29.58,10,1,17,1.01
2013-6-15,77.4,66.5,55.1,56.0,53.6,49.0,93,66,39,29.96,29.79,3,0,6,0.00
2013-6-16,76.7,66.1,53.4,64.0,57.9,52.0,94,76,48,29.96,29.75,6,1,9,0.00
2013-6-17,83.5,71.7,61.7,69.0,63.6,60.0,94,77,49,29.92,29.80,9,1,11,0.00
2013-6-18,82.2,66.9,58.9,66.0,60.4,58.0,97,82,50,29.95,29.84,8,1,13,0.40
2013-6-19,73.8,64.2,54.8,61.0,56.6,52.0,98,79,50,30.15,29.88,3,0,8,0.03
2013-6-20,78.2,66.1,53.1,60.0,55.2,52.0,97,71,41,30.27,30.16,4,0,11,0.00
2013-6-21,81.8,69.3,58.0,67.0,59.6,55.0,91,72,55,30.29,30.21,4,1,9,0.00
2013-6-22,81.6,70.5,61.6,65.0,59.2,54.0,91,68,49,30.25,30.16,5,1,10,0.00
2013-6-23,86.0,74.3,62.1,71.0,66.8,60.0,94,79,57,30.19,30.05,7,1,10,0.00
2013-6-24,91.3,80.3,69.8,77.0,72.0,66.0,94,77,58,30.05,29.89,3,1,8,0.00
2013-6-25,90.5,78.5,67.5,73.0,69.6,65.0,92,76,49,29.95,29.75,6,1,8,0.00
2013-6-26,88.2,77.6,70.6,75.0,71.3,69.0,94,82,59,29.84,29.74,5,0,10,0.00
2013-6-27,73.1,70.6,66.8,71.0,68.2,66.0,97,92,86,29.85,29.73,5,1,8,0.00
2013-6-28,78.2,71.5,67.2,73.0,70.0,67.0,99,95,82,29.73,29.53,7,2,11,0.49
2013-6-29,79.3,73.0,69.9,72.0,69.7,67.0,99,89,69,29.74,29.52,8,2,15,0.01
2013-6-30,78.7,73.2,70.2,74.0,70.2,69.0,98,91,77,29.95,29.74,8,1,13,0.18
2013-7-1,78.6,73.0,70.4,75.0,71.9,70.0,99,96,88,30.10,29.95,6,1,10,0.41
2013-7-2,80.8,74.6,71.3,75.0,72.3,71.0,98,93,79,30.21,30.10,4,1,9,0.00
2013-7-3,85.9,76.5,70.4,76.0,72.3,69.0,96,87,69,30.23,30.17,4,1,8,0.00
2013-7-4,89.2,80.5,73.3,78.0,74.6,72.0,96,83,66,30.23,30.13,5,1,8,0.00
2013-7-5,91.1,81.5,73.3,78.0,74.0,71.0,93,79,60,30.18,30.07,3,1,9,0.00
2013-7-6,90.6,80.7,73.1,78.0,74.5,71.0,93,82,63,30.09,29.99,2,0,10,0.00
2013-7-7,92.1,81.7,73.0,78.0,74.3,70.0,96,79,60,30.03,29.92,5,0,8,0.00
2013-7-8,89.0,80.7,73.5,75.0,72.7,70.0,93,78,58,30.03,29.92,5,1,7,0.00
2013-7-9,78.9,71.8,68.6,72.0,69.1,67.0,98,91,76,30.10,30.02,3,0,7,0.21
2013-7-10,83.6,75.6,71.3,76.0,73.2,70.0,98,92,77,30.06,29.82,6,1,12,0.00
2013-7-11,77.8,74.8,71.7,75.0,73.2,71.0,98,94,89,29.91,29.80,2,0,5,0.30
2013-7-12,77.2,71.3,67.3,70.0,65.9,60.0,97,84,70,30.18,29.91,5,1,13,0.00
2013-7-13,77.3,71.2,66.0,75.0,69.3,64.0,98,93,87,30.31,30.18,5,1,7,0.08
2013-7-14,88.5,79.6,71.9,78.0,74.5,71.0,99,85,66,30.30,30.20,2,0,7,0.00
2013-7-15,90.2,81.5,74.3,77.0,74.7,73.0,96,81,61,30.21,30.10,1,0,5,0.00
2013-7-16,91.3,81.6,70.8,75.0,72.4,68.0,93,75,55,30.16,30.10,5,0,7,0.00
2013-7-17,90.8,80.6,71.6,77.0,72.8,70.0,96,78,60,30.18,30.04,4,1,10,0.00
2013-7-18,95.6,84.0,74.4,79.0,74.9,70.0,88,75,51,30.04,29.94,5,0,9,0.00
2013-7-19,94.7,84.5,76.3,80.0,76.4,74.0,93,78,57,29.95,29.76,6,1,11,0.00
2013-7-20,91.4,81.3,73.2,79.0,75.9,72.0,97,84,59,29.82,29.67,7,1,10,0.18
2013-7-21,83.0,73.8,67.1,72.0,68.8,65.0,98,85,65,29.99,29.82,6,0,9,0.08
2013-7-22,83.5,75.2,68.0,72.0,70.0,67.0,97,84,66,30.00,29.87,7,2,11,0.00
2013-7-23,83.8,75.7,71.5,77.0,73.2,70.0,99,92,76,29.86,29.55,8,1,10,0.08
2013-7-24,84.6,76.7,70.8,74.0,70.5,63.0,98,82,67,29.91,29.59,2,0,8,0.00
2013-7-25,71.7,62.9,59.2,62.0,57.7,53.0,97,84,68,30.07,29.91,8,1,11,0.15
2013-7-26,69.9,64.0,59.9,68.0,63.2,59.0,99,97,92,30.03,29.95,3,0,7,0.21
2013-7-27,81.7,71.5,62.2,70.0,65.9,62.0,99,84,56,30.07,30.00,6,1,10,0.01
2013-7-28,83.9,73.1,67.8,73.0,68.9,66.0,97,87,68,30.02,29.96,7,1,10,0.00
2013-7-29,82.1,74.2,68.7,75.0,71.0,67.0,98,90,75,30.05,29.98,6,1,11,0.16
2013-7-30,80.9,71.5,61.5,68.0,62.3,59.0,95,74,52,30.11,30.04,3,0,6,0.00
2013-7-31,81.5,70.8,59.5,66.0,62.1,57.0,93,75,52,30.14,30.05,5,0,9,0.00
2013-8-1,81.2,69.1,61.8,68.0,63.6,60.0,98,84,55,30.06,29.89,5,1,11,0.03
2013-8-2,81.8,72.0,64.5,71.0,65.7,63.0,98,82,55,29.89,29.80,7,0,8,0.06
2013-8-3,75.8,69.9,64.5,67.0,65.3,62.0,94,85,71,29.89,29.80,2,0,6,0.00
2013-8-4,80.5,68.5,57.3,63.0,59.3,56.0,95,75,45,29.90,29.79,5,0,9,0.00
2013-8-5,76.3,66.4,55.0,57.0,53.5,48.0,91,66,37,30.05,29.90,4,0,8,0.00
2013-8-6,80.6,66.5,51.7,58.0,53.3,48.0,95,67,33,30.16,30.05,5,1,12,0.00
2013-8-7,80.9,67.5,55.2,64.0,57.4,52.0,96,73,38,30.19,30.13,8,2,10,0.00
2013-8-8,78.5,72.2,66.3,71.0,67.2,61.0,91,84,77,30.14,30.04,5,2,11,0.00
2013-8-9,74.0,73.0,70.7,74.0,71.4,70.0,99,95,91,30.06,29.79,11,2,14,1.27
2013-8-10,81.8,73.2,63.6,73.0,65.5,55.0,99,79,59,30.02,29.81,2,0,7,0.00
2013-8-11,78.2,68.1,54.4,61.0,56.9,52.0,92,69,48,30.09,30.02,3,0,6,0.00
2013-8-12,81.4,70.6,61.8,68.0,63.1,60.0,95,79,51,30.05,29.93,3,0,5,0.00
2013-8-13,71.5,67.1,63.3,69.0,65.0,62.0,98,93,78,29.94,29.70,5,1,8,0.04
2013-8-14,73.0,66.1,59.0,64.0,57.6,54.0,97,75,56,29.98,29.69,7,1,9,0.00
2013-8-15,76.1,64.8,53.1,58.0,54.5,51.0,94,72,45,30.13,29.99,4,0,7,0.00
2013-8-16,79.3,67.3,55.4,62.0,56.9,54.0,95,72,42,30.21,30.12,4,1,9,0.00
2013-8-17,82.7,69.4,56.8,63.0,58.7,55.0,93,71,41,30.28,30.21,7,0,8,0.00
2013-8-18,78.5,66.9,58.7,64.0,59.8,57.0,95,80,49,30.28,30.11,5,1,6,0.01
2013-8-19,80.8,69.4,58.4,66.0,62.0,57.0,95,79,56,30.10,29.98,3,0,7,0.00
2013-8-20,85.3,74.1,63.3,66.0,63.3,58.0,94,72,41,30.11,29.99,4,0,5,0.00
2013-8-21,88.2,75.2,62.2,68.0,64.2,60.0,94,71,44,30.15,30.05,3,0,7,0.00
2013-8-22,83.2,72.1,66.7,74.0,69.4,64.0,97,91,73,30.06,29.85,4,0,7,0.22
2013-8-23,79.2,71.5,61.7,69.0,64.3,59.0,98,79,55,30.11,29.83,4,0,10,0.00
2013-8-24,77.2,66.1,56.2,60.0,51.5,42.0,93,63,31,30.35,30.11,8,1,12,0.00
2013-8-25,83.1,68.0,53.7,62.0,55.1,50.0,96,68,34,30.37,30.21,5,0,9,0.00
2013-8-26,78.6,70.6,64.8,68.0,63.6,58.0,96,79,64,30.22,29.92,4,1,9,0.06
2013-8-27,79.0,70.5,66.0,73.0,68.7,65.0,99,94,75,29.91,29.82,4,0,9,0.88
2013-8-28,84.5,72.0,63.1,72.0,67.1,63.0,99,85,63,29.93,29.86,6,1,11,0.00
2013-8-29,68.9,65.4,60.9,67.0,62.9,58.0,97,91,87,30.06,29.93,6,1,9,0.00
2013-8-30,77.9,67.8,58.7,70.0,64.0,57.0,95,88,75,30.03,29.86,3,0,6,0.00
2013-8-31,78.5,73.6,68.8,73.0,70.8,68.0,97,90,82,29.86,29.82,5,1,8,0.00
2013-9-1,79.5,73.5,69.4,76.0,71.9,69.0,99,95,84,29.89,29.82,4,1,7,1.65
2013-9-2,74.8,72.1,69.1,75.0,71.7,68.0,100,98,96,29.87,29.72,5,1,11,2.50
2013-9-3,76.2,70.5,62.9,73.0,69.8,62.0,100,97,89,29.84,29.70,3,0,7,0.12
2013-9-4,77.1,67.0,57.6,65.0,61.2,57.0,99,83,58,29.94,29.83,3,0,9,0.00
2013-9-5,72.5,63.8,54.5,65.0,59.2,53.0,96,85,66,30.13,29.89,3,0,9,0.00
2013-9-6,68.4,57.3,45.6,53.0,47.8,43.0,94,73,46,30.25,30.12,2,0,6,0.00
2013-9-7,75.3,62.0,47.6,59.0,52.8,46.0,95,74,48,30.12,29.89,4,1,9,0.00
2013-9-8,77.5,66.4,53.6,67.0,56.3,43.0,95,72,44,30.10,29.77,4,0,8,0.00
2013-9-9,68.4,57.6,44.6,53.0,47.9,42.0,93,72,48,30.25,30.10,8,1,9,0.00
2013-9-10,72.8,66.6,56.0,70.0,63.2,51.0,95,89,82,30.18,30.06,6,1,10,0.01
2013-9-11,90.9,78.2,69.6,79.0,73.1,69.0,98,85,64,30.09,29.98,4,1,9,0.00
2013-9-12,82.6,74.6,69.4,74.0,70.7,68.0,97,88,71,30.00,29.68,8,2,16,0.55
2013-9-13,76.2,69.0,61.2,71.0,66.4,58.0,99,91,74,29.76,29.58,2,0,9,0.08
2013-9-14,68.9,60.7,52.8,58.0,55.0,51.0,93,82,65,30.07,29.76,2,0,5,0.00
2013-9-15,69.1,58.6,48.4,56.0,52.0,47.0,96,80,56,30.18,30.07,4,0,6,0.00
2013-9-16,65.1,57.8,50.1,60.0,54.9,42.0,97,90,69,30.23,30.03,3,0,7,0.07
2013-9-17,60.7,51.6,42.5,46.0,41.4,38.0,94,70,44,30.42,30.24,9,1,9,0.00
2013-9-18,69.7,55.6,41.9,53.0,46.5,41.0,95,75,44,30.34,30.17,3,0,6,0.00
2013-9-19,75.2,61.2,49.6,59.0,53.0,48.0,95,77,50,30.17,30.05,2,0,5,0.00
2013-9-20,77.3,63.3,51.8,61.0,55.6,51.0,97,79,44,30.09,30.01,3,0,6,0.00
2013-9-21,74.0,64.9,53.5,67.0,61.2,52.0,99,88,70,30.05,29.75,8,2,14,0.00
2013-9-22,69.3,63.5,50.4,68.0,59.5,47.0,98,87,67,29.84,29.64,8,1,13,0.39
2013-9-23,62.2,53.4,46.5,50.0,46.2,42.0,92,77,59,30.02,29.84,3,0,6,0.04
2013-9-24,64.0,52.6,42.1,50.0,45.3,40.0,91,77,56,30.02,29.83,6,0,6,0.02
2013-9-25,67.6,57.0,45.4,55.0,49.5,44.0,94,77,58,29.98,29.88,4,0,9,0.01
2013-9-26,65.6,56.9,50.4,52.0,50.2,48.0,95,79,57,30.12,29.98,2,0,7,0.00
2013-9-27,65.8,57.1,49.0,56.0,52.3,47.0,94,84,69,30.27,30.11,2,0,7,0.00
2013-9-28,73.4,58.8,46.3,58.0,51.7,45.0,97,80,51,30.32,30.25,8,1,12,0.00
2013-9-29,66.9,55.6,44.5,56.0,49.7,43.0,98,82,56,30.26,30.11,5,1,9,0.00
2013-9-30,67.9,57.3,49.8,56.0,51.1,47.0,97,82,51,30.12,29.97,3,0,7,0.00
2013-10-1,74.3,60.2,46.9,60.0,53.5,46.0,97,81,51,29.97,29.86,3,0,6,0.00
2013-10-2,77.9,65.1,53.9,63.0,58.8,53.0,97,82,55,29.98,29.86,4,0,10,0.00
2013-10-3,76.6,62.5,51.8,59.0,54.0,50.0,95,77,43,30.09,29.98,3,0,5,0.00
2013-10-4,69.1,58.8,52.6,62.0,55.8,51.0,96,90,72,30.07,30.03,2,0,8,0.00
2013-10-5,69.0,61.9,57.4,63.0,59.6,57.0,98,92,78,30.12,30.05,3,0,7,0.22
2013-10-6,60.0,58.9,57.2,58.0,57.1,56.0,97,94,89,30.20,30.11,8,1,11,0.07
2013-10-7,74.7,66.8,57.3,71.0,64.8,57.0,100,93,85,30.12,29.86,13,3,18,0.06
2013-10-8,66.0,57.8,49.0,58.0,49.0,44.0,90,74,50,30.36,29.92,3,0,6,0.04
2013-10-9,63.6,53.7,45.2,50.0,45.3,42.0,91,75,55,30.44,30.35,10,1,11,0.03
2013-10-10,65.0,55.8,47.8,56.0,51.7,46.0,94,86,73,30.35,30.15,7,1,10,0.01
2013-10-11,68.9,60.0,51.4,60.0,54.2,45.0,94,81,64,30.15,30.08,7,1,11,0.02
2013-10-12,69.4,57.4,49.8,58.0,52.4,47.0,93,84,65,30.36,30.12,12,2,17,0.00
2013-10-13,61.1,53.9,42.3,51.0,48.0,41.0,93,81,66,30.42,30.34,9,1,11,0.00
2013-10-14,61.6,49.3,37.9,49.0,44.0,37.0,97,83,56,30.41,30.27,6,0,8,0.00
2013-10-15,69.2,54.3,42.7,53.0,47.1,41.0,97,79,51,30.28,30.17,5,1,9,0.00
2013-10-16,63.2,55.0,45.8,57.0,52.4,44.0,97,91,80,30.18,29.93,2,0,5,0.00
2013-10-17,68.1,60.5,52.2,63.0,58.1,51.0,99,92,81,29.92,29.74,4,0,6,0.01
2013-10-18,68.3,60.9,46.9,62.0,52.9,44.0,97,77,51,29.94,29.64,6,1,10,0.01
2013-10-19,64.2,53.1,40.6,51.0,45.0,39.0,95,76,48,29.99,29.77,5,1,8,0.00
2013-10-20,61.3,53.2,41.5,52.0,42.9,35.0,97,72,39,30.05,29.71,4,0,8,0.01
2013-10-21,65.1,51.1,37.8,46.0,40.6,35.0,91,71,41,30.13,30.02,4,0,8,0.00
2013-10-22,67.8,54.3,42.1,55.0,47.0,40.0,98,78,48,30.02,29.72,5,1,9,0.00
2013-10-23,50.5,44.3,38.7,42.0,39.7,36.0,94,85,59,29.81,29.60,1,0,3,0.01
2013-10-24,52.3,43.1,37.3,39.0,32.1,28.0,90,68,39,29.92,29.67,6,1,10,0.00
2013-10-25,50.4,40.9,32.3,37.0,30.8,28.0,86,69,47,30.19,29.92,3,0,8,0.00
2013-10-26,53.9,42.9,29.7,39.0,33.2,27.0,92,71,43,30.19,29.90,8,2,15,0.00
2013-10-27,56.9,47.4,35.0,43.0,36.2,31.0,94,67,46,30.09,29.84,8,1,8,0.01
2013-10-28,59.0,44.2,31.4,37.0,33.3,29.0,93,69,42,30.35,30.09,4,1,17,0.00
2013-10-29,51.3,41.1,32.5,31.0,28.1,26.0,89,62,39,30.44,30.36,3,0,5,0.00
2013-10-30,57.5,44.7,33.0,46.0,39.2,30.0,93,82,63,30.38,30.20,2,0,7,0.00
2013-10-31,63.2,51.8,37.8,61.0,49.8,36.0,97,93,86,30.25,29.84,8,2,14,0.04
2013-11-1,68.5,63.5,58.1,64.0,59.8,54.0,96,88,77,29.83,29.52,13,4,28,0.09
2013-11-2,65.4,57.0,51.6,55.0,50.2,45.0,93,79,50,29.72,29.60,7,0,8,0.00
2013-11-3,51.5,43.4,33.1,47.0,35.1,19.0,88,73,54,30.41,29.73,3,0,8,0.00
2013-11-4,45.8,35.2,26.8,26.0,21.5,17.0,89,60,39,30.71,30.42,4,1,12,0.00
2013-11-5,49.2,37.4,25.2,35.0,29.8,23.0,94,76,50,30.71,30.53,9,1,9,0.00
2013-11-6,58.7,48.0,35.3,52.0,42.8,33.0,97,83,60,30.53,30.09,10,1,14,0.00
2013-11-7,64.2,54.2,37.0,60.0,52.3,34.0,98,93,84,30.07,29.69,7,1,11,0.30
2013-11-8,48.9,38.1,30.8,38.0,30.6,25.0,97,76,52,30.13,29.85,7,1,12,0.00
2013-11-9,45.9,36.7,26.2,33.0,27.5,24.0,92,72,45,30.24,30.06,4,0,8,0.00
2013-11-10,57.3,46.2,39.1,43.0,38.5,33.0,89,76,49,30.04,29.73,4,1,8,0.01
2013-11-11,51.0,44.9,35.9,40.0,31.8,28.0,79,61,43,30.13,29.92,6,2,15,0.00
2013-11-12,50.6,36.9,26.5,40.0,29.2,20.0,93,74,56,30.20,29.90,3,1,12,0.07
2013-11-13,36.9,28.9,24.0,20.0,16.9,14.0,78,62,42,30.30,30.20,4,1,11,0.00
2013-11-14,50.0,39.9,27.3,29.0,22.1,17.0,67,51,32,30.21,30.08,5,2,12,0.00
2013-11-15,58.7,45.5,35.3,40.0,30.0,19.0,93,59,26,30.23,30.14,7,2,11,0.00
2013-11-16,58.9,46.2,35.9,41.0,36.3,30.0,95,71,47,30.33,30.22,5,1,9,0.00
2013-11-17,59.2,48.8,35.5,59.0,47.1,34.0,99,94,78,30.31,29.86,5,1,9,0.16
2013-11-18,62.9,56.7,46.9,62.0,50.8,35.0,99,82,59,29.84,29.58,10,3,17,0.41
2013-11-19,46.6,40.1,31.1,34.0,26.0,20.0,71,58,43,30.29,29.69,6,2,12,0.00
2013-11-20,41.4,31.7,23.5,20.0,17.0,12.0,81,57,31,30.63,30.29,4,1,7,0.00
2013-11-21,46.8,34.3,21.5,33.0,23.8,18.0,89,69,35,30.64,30.40,4,1,7,0.00
2013-11-22,50.9,46.2,38.9,50.0,44.1,34.0,98,92,81,30.39,29.84,3,0,5,0.15
2013-11-23,47.9,41.2,29.8,47.0,29.1,17.0,97,64,37,29.92,29.82,8,2,15,0.00
2013-11-24,29.7,24.5,20.6,16.0,6.0,-1.0,59,46,32,30.23,29.84,13,3,21,0.00
2013-11-25,33.1,25.7,16.8,24.0,7.0,-4.0,70,47,23,30.40,30.23,6,1,12,0.00
2013-11-26,43.6,38.0,33.0,39.0,27.1,19.0,96,67,48,30.34,30.02,5,1,9,0.17
2013-11-27,62.0,51.6,36.1,61.0,50.6,34.0,99,96,88,30.01,29.24,24,5,33,1.12
2013-11-28,36.2,30.9,23.9,33.0,19.5,12.0,90,64,43,30.46,29.53,7,2,16,0.06
2013-11-29,35.6,28.7,21.9,20.0,16.4,9.0,70,60,49,30.74,30.46,6,1,8,0.00
2013-11-30,33.7,26.1,16.8,25.0,17.1,9.0,85,70,54,30.79,30.44,4,1,10,0.00
2013-12-1,43.0,36.2,29.1,43.0,34.7,25.0,98,94,84,30.42,30.01,2,0,4,0.04
2013-12-2,43.0,37.9,33.8,41.0,37.1,33.0,98,96,89,30.02,29.92,2,0,3,0.24
2013-12-3,49.4,39.1,31.9,41.0,35.3,30.0,98,87,62,29.97,29.84,3,1,6,0.02
2013-12-4,50.0,35.8,28.4,36.0,31.2,27.0,97,85,55,30.21,29.97,3,0,5,0.00
2013-12-5,54.5,44.5,32.2,54.0,43.4,31.0,99,95,90,30.20,29.95,5,0,8,0.00
2013-12-6,56.3,49.5,37.6,56.0,48.5,37.0,99,96,92,30.12,29.88,4,1,7,0.27
2013-12-7,41.0,34.5,28.1,36.0,30.6,24.0,97,86,67,30.47,30.07,6,1,9,0.28
2013-12-8,32.3,28.4,22.2,24.0,20.8,18.0,92,74,60,30.61,30.47,6,1,8,0.00
2013-12-9,38.0,33.4,27.1,38.0,32.3,21.0,98,95,73,30.48,29.91,7,1,10,0.29
2013-12-10,34.3,31.0,24.3,34.0,30.1,22.0,98,96,89,30.04,29.79,2,0,6,0.01
2013-12-11,30.3,25.8,21.2,24.0,21.4,19.0,94,83,74,30.27,30.05,8,1,13,0.00
2013-12-12,26.8,21.5,14.3,19.0,11.5,7.0,83,67,46,30.30,30.11,5,1,8,0.00
2013-12-13,31.5,23.3,16.0,18.0,13.3,8.0,84,66,50,30.37,30.04,7,1,14,0.00
2013-12-14,28.0,19.3,14.6,27.0,11.4,2.0,95,72,51,30.59,30.10,8,2,12,0.00
2013-12-15,35.7,30.5,24.1,35.0,28.5,22.0,98,92,80,30.07,29.39,13,2,14,0.08
2013-12-16,29.1,23.2,12.5,22.0,14.8,9.0,93,71,51,30.23,29.78,5,1,12,0.00
2013-12-17,22.5,15.8,6.0,21.0,12.8,4.0,92,88,78,30.28,29.93,9,1,11,0.00
2013-12-18,33.7,26.2,20.3,23.0,20.4,18.0,91,79,61,30.13,29.86,10,1,10,0.00
2013-12-19,44.0,33.0,21.1,30.0,25.2,18.0,88,74,56,30.15,29.98,5,1,12,0.13
2013-12-20,51.0,39.6,28.4,40.0,33.5,27.0,94,80,60,30.13,29.96,5,1,9,0.43
2013-12-21,57.9,49.8,41.0,52.0,46.5,38.0,98,89,74,30.01,29.91,7,2,10,0.31
2013-12-22,62.2,58.2,47.4,60.0,55.7,44.0,94,91,83,29.99,29.81,15,3,17,0.00
2013-12-23,47.0,39.7,36.0,44.0,38.6,35.0,98,96,88,30.08,29.94,4,1,9,0.43
2013-12-24,39.3,33.3,26.9,39.0,26.7,20.0,97,77,60,30.22,30.05,5,1,10,0.10
2013-12-25,26.7,21.1,16.9,19.0,9.4,6.0,79,61,47,30.55,30.23,7,1,12,0.00
2013-12-26,35.6,28.1,19.3,32.0,23.8,14.0,93,84,78,30.49,30.10,4,1,10,0.01
2013-12-27,36.1,28.8,23.0,27.0,22.0,19.0,90,76,51,30.31,30.22,5,1,10,0.00
2013-12-28,48.3,34.8,23.1,32.0,26.1,20.0,93,72,46,30.25,30.03,10,1,15,0.00
2013-12-29,46.2,37.6,27.9,41.0,34.7,25.0,97,89,67,30.05,29.36,5,1,12,0.90
2013-12-30,40.1,32.4,20.0,38.0,26.3,13.0,98,79,52,30.16,29.53,10,1,11,0.00
2013-12-31,26.8,21.1,16.5,17.0,12.7,9.0,85,70,50,30.22,30.05,8,1,12,0.00
2014-1-1,29.3,23.9,17.6,17.0,11.7,8.0,71,61,45,30.40,30.22,7,1,11,0.00
2014-1-2,23.9,18.5,5.7,20.0,15.8,3.0,91,89,76,30.35,29.76,6,2,13,0.00